sensor_id;sensor_type;location;lat;lon;timestamp;P1;durP1;ratioP1;P2;durP2;ratioP2
57331;SDS011;43164;50.908;18.092;2023-07-29T00:00:04;5.80;;;2.60;;
57331;SDS011;43164;50.908;18.092;2023-07-29T00:02:32;5.90;;;2.30;;
57331;SDS011;43164;50.908;18.092;2023-07-29T00:05:00;3.90;;;1.90;;
57331;SDS011;43164;50.908;18.092;2023-07-29T00:07:28;5.50;;;2.00;;
57331;SDS011;43164;50.908;18.092;2023-07-29T00:09:56;5.40;;;2.50;;
57331;SDS011;43164;50.908;18.092;2023-07-29T00:12:25;3.50;;;1.90;;
57331;SDS011;43164;50.908;18.092;2023-07-29T00:14:54;6.00;;;2.80;;
57331;SDS011;43164;50.908;18.092;2023-07-29T00:17:22;5.00;;;2.50;;
57331;SDS011;43164;50.908;18.092;2023-07-29T00:19:51;4.20;;;2.40;;
57331;SDS011;43164;50.908;18.092;2023-07-29T00:22:17;5.40;;;2.70;;
57331;SDS011;43164;50.908;18.092;2023-07-29T00:24:50;5.50;;;2.20;;
57331;SDS011;43164;50.908;18.092;2023-07-29T00:27:21;4.70;;;1.80;;
57331;SDS011;43164;50.908;18.092;2023-07-29T00:29:49;3.30;;;1.50;;
57331;SDS011;43164;50.908;18.092;2023-07-29T00:32:17;4.20;;;1.80;;
57331;SDS011;43164;50.908;18.092;2023-07-29T00:34:45;3.40;;;1.90;;
57331;SDS011;43164;50.908;18.092;2023-07-29T00:37:14;3.70;;;2.00;;
57331;SDS011;43164;50.908;18.092;2023-07-29T00:39:42;6.30;;;1.70;;
57331;SDS011;43164;50.908;18.092;2023-07-29T00:42:09;4.10;;;1.50;;
57331;SDS011;43164;50.908;18.092;2023-07-29T00:44:36;4.60;;;1.50;;
57331;SDS011;43164;50.908;18.092;2023-07-29T00:47:05;5.30;;;2.00;;
57331;SDS011;43164;50.908;18.092;2023-07-29T00:49:34;4.00;;;2.10;;
57331;SDS011;43164;50.908;18.092;2023-07-29T00:52:01;5.00;;;2.00;;
57331;SDS011;43164;50.908;18.092;2023-07-29T00:54:29;4.00;;;1.50;;
57331;SDS011;43164;50.908;18.092;2023-07-29T00:56:57;4.00;;;1.40;;
57331;SDS011;43164;50.908;18.092;2023-07-29T00:59:25;4.60;;;1.80;;
57331;SDS011;43164;50.908;18.092;2023-07-29T01:01:55;3.70;;;1.50;;
57331;SDS011;43164;50.908;18.092;2023-07-29T01:04:23;4.30;;;1.70;;
57331;SDS011;43164;50.908;18.092;2023-07-29T01:06:58;5.30;;;1.70;;
57331;SDS011;43164;50.908;18.092;2023-07-29T01:10:10;3.10;;;1.50;;
57331;SDS011;43164;50.908;18.092;2023-07-29T01:15:22;2.70;;;1.50;;
57331;SDS011;43164;50.908;18.092;2023-07-29T01:18:01;3.40;;;1.70;;
57331;SDS011;43164;50.908;18.092;2023-07-29T01:20:33;4.80;;;1.80;;
57331;SDS011;43164;50.908;18.092;2023-07-29T01:23:08;6.20;;;2.70;;
57331;SDS011;43164;50.908;18.092;2023-07-29T01:25:37;4.90;;;2.60;;
57331;SDS011;43164;50.908;18.092;2023-07-29T01:28:05;7.10;;;2.40;;
57331;SDS011;43164;50.908;18.092;2023-07-29T01:30:40;3.80;;;2.00;;
57331;SDS011;43164;50.908;18.092;2023-07-29T01:33:14;6.30;;;2.30;;
57331;SDS011;43164;50.908;18.092;2023-07-29T01:35:48;5.80;;;2.00;;
57331;SDS011;43164;50.908;18.092;2023-07-29T01:38:38;4.80;;;1.90;;
57331;SDS011;43164;50.908;18.092;2023-07-29T01:41:08;3.20;;;1.70;;
57331;SDS011;43164;50.908;18.092;2023-07-29T01:43:36;2.90;;;1.50;;
57331;SDS011;43164;50.908;18.092;2023-07-29T01:46:10;3.90;;;1.40;;
57331;SDS011;43164;50.908;18.092;2023-07-29T01:48:38;2.70;;;1.30;;
57331;SDS011;43164;50.908;18.092;2023-07-29T01:51:06;3.50;;;1.60;;
57331;SDS011;43164;50.908;18.092;2023-07-29T01:53:33;2.60;;;1.20;;
57331;SDS011;43164;50.908;18.092;2023-07-29T01:56:01;4.00;;;1.60;;
57331;SDS011;43164;50.908;18.092;2023-07-29T01:58:29;4.10;;;1.70;;
57331;SDS011;43164;50.908;18.092;2023-07-29T02:00:59;3.80;;;1.50;;
57331;SDS011;43164;50.908;18.092;2023-07-29T02:03:27;5.20;;;1.80;;
57331;SDS011;43164;50.908;18.092;2023-07-29T02:05:55;5.10;;;2.50;;
57331;SDS011;43164;50.908;18.092;2023-07-29T02:08:23;4.50;;;1.90;;
57331;SDS011;43164;50.908;18.092;2023-07-29T02:10:51;6.80;;;2.20;;
57331;SDS011;43164;50.908;18.092;2023-07-29T02:13:19;4.40;;;1.60;;
57331;SDS011;43164;50.908;18.092;2023-07-29T02:15:49;6.40;;;1.80;;
57331;SDS011;43164;50.908;18.092;2023-07-29T02:18:17;5.60;;;1.80;;
57331;SDS011;43164;50.908;18.092;2023-07-29T02:20:46;3.10;;;1.40;;
57331;SDS011;43164;50.908;18.092;2023-07-29T02:23:18;3.70;;;1.60;;
57331;SDS011;43164;50.908;18.092;2023-07-29T02:25:46;3.30;;;1.50;;
57331;SDS011;43164;50.908;18.092;2023-07-29T02:28:14;6.30;;;1.30;;
57331;SDS011;43164;50.908;18.092;2023-07-29T02:30:42;3.40;;;1.30;;
57331;SDS011;43164;50.908;18.092;2023-07-29T02:33:17;3.90;;;1.70;;
57331;SDS011;43164;50.908;18.092;2023-07-29T02:35:45;2.90;;;1.40;;
57331;SDS011;43164;50.908;18.092;2023-07-29T02:38:12;3.10;;;1.50;;
57331;SDS011;43164;50.908;18.092;2023-07-29T02:40:40;3.40;;;1.60;;
57331;SDS011;43164;50.908;18.092;2023-07-29T02:43:08;5.70;;;2.10;;
57331;SDS011;43164;50.908;18.092;2023-07-29T02:45:37;5.20;;;1.30;;
57331;SDS011;43164;50.908;18.092;2023-07-29T02:48:05;3.40;;;1.70;;
57331;SDS011;43164;50.908;18.092;2023-07-29T02:50:34;3.70;;;1.90;;
57331;SDS011;43164;50.908;18.092;2023-07-29T02:53:02;4.30;;;1.30;;
57331;SDS011;43164;50.908;18.092;2023-07-29T02:55:31;4.70;;;1.40;;
57331;SDS011;43164;50.908;18.092;2023-07-29T02:57:59;7.20;;;1.30;;
57331;SDS011;43164;50.908;18.092;2023-07-29T03:00:30;5.90;;;1.50;;
57331;SDS011;43164;50.908;18.092;2023-07-29T03:03:05;4.70;;;1.40;;
57331;SDS011;43164;50.908;18.092;2023-07-29T03:05:33;3.10;;;1.40;;
57331;SDS011;43164;50.908;18.092;2023-07-29T03:08:01;3.90;;;1.20;;
57331;SDS011;43164;50.908;18.092;2023-07-29T03:10:31;4.00;;;1.20;;
57331;SDS011;43164;50.908;18.092;2023-07-29T03:13:07;7.00;;;2.30;;
57331;SDS011;43164;50.908;18.092;2023-07-29T03:15:34;4.00;;;1.70;;
57331;SDS011;43164;50.908;18.092;2023-07-29T03:18:03;4.30;;;1.80;;
57331;SDS011;43164;50.908;18.092;2023-07-29T03:20:31;4.90;;;1.80;;
57331;SDS011;43164;50.908;18.092;2023-07-29T03:22:59;3.10;;;1.10;;
57331;SDS011;43164;50.908;18.092;2023-07-29T03:25:29;3.80;;;1.50;;
57331;SDS011;43164;50.908;18.092;2023-07-29T03:28:04;5.10;;;1.30;;
57331;SDS011;43164;50.908;18.092;2023-07-29T03:30:31;5.80;;;1.30;;
57331;SDS011;43164;50.908;18.092;2023-07-29T03:33:00;7.00;;;1.30;;
57331;SDS011;43164;50.908;18.092;2023-07-29T03:35:28;3.60;;;1.20;;
57331;SDS011;43164;50.908;18.092;2023-07-29T03:38:00;2.90;;;0.90;;
57331;SDS011;43164;50.908;18.092;2023-07-29T03:40:28;2.90;;;1.00;;
57331;SDS011;43164;50.908;18.092;2023-07-29T03:42:56;2.90;;;0.90;;
57331;SDS011;43164;50.908;18.092;2023-07-29T03:45:24;2.60;;;0.90;;
57331;SDS011;43164;50.908;18.092;2023-07-29T03:47:53;3.10;;;0.90;;
57331;SDS011;43164;50.908;18.092;2023-07-29T03:50:23;4.40;;;0.90;;
57331;SDS011;43164;50.908;18.092;2023-07-29T03:52:52;2.80;;;0.80;;
57331;SDS011;43164;50.908;18.092;2023-07-29T03:55:21;7.20;;;1.80;;
57331;SDS011;43164;50.908;18.092;2023-07-29T03:57:51;3.20;;;1.00;;
57331;SDS011;43164;50.908;18.092;2023-07-29T04:00:20;2.90;;;0.60;;
57331;SDS011;43164;50.908;18.092;2023-07-29T04:02:49;2.90;;;0.80;;
57331;SDS011;43164;50.908;18.092;2023-07-29T04:05:18;2.70;;;1.00;;
57331;SDS011;43164;50.908;18.092;2023-07-29T04:07:47;2.40;;;0.70;;
57331;SDS011;43164;50.908;18.092;2023-07-29T04:10:15;3.30;;;0.80;;
57331;SDS011;43164;50.908;18.092;2023-07-29T04:12:43;3.80;;;1.00;;
57331;SDS011;43164;50.908;18.092;2023-07-29T04:15:22;4.60;;;0.70;;
57331;SDS011;43164;50.908;18.092;2023-07-29T04:17:51;2.70;;;1.00;;
57331;SDS011;43164;50.908;18.092;2023-07-29T04:20:20;3.80;;;1.00;;
57331;SDS011;43164;50.908;18.092;2023-07-29T04:22:48;5.10;;;1.00;;
57331;SDS011;43164;50.908;18.092;2023-07-29T04:25:17;3.30;;;1.10;;
57331;SDS011;43164;50.908;18.092;2023-07-29T04:27:45;2.20;;;1.00;;
57331;SDS011;43164;50.908;18.092;2023-07-29T04:30:12;2.60;;;1.00;;
57331;SDS011;43164;50.908;18.092;2023-07-29T04:32:41;3.60;;;1.10;;
57331;SDS011;43164;50.908;18.092;2023-07-29T04:35:18;4.40;;;1.00;;
57331;SDS011;43164;50.908;18.092;2023-07-29T04:37:46;4.10;;;1.00;;
57331;SDS011;43164;50.908;18.092;2023-07-29T04:40:14;3.10;;;1.00;;
57331;SDS011;43164;50.908;18.092;2023-07-29T04:42:42;6.50;;;1.30;;
57331;SDS011;43164;50.908;18.092;2023-07-29T04:45:10;4.80;;;1.30;;
57331;SDS011;43164;50.908;18.092;2023-07-29T04:47:39;4.50;;;1.70;;
57331;SDS011;43164;50.908;18.092;2023-07-29T04:50:09;4.10;;;1.40;;
57331;SDS011;43164;50.908;18.092;2023-07-29T04:52:36;3.40;;;1.10;;
57331;SDS011;43164;50.908;18.092;2023-07-29T04:55:12;4.20;;;1.20;;
57331;SDS011;43164;50.908;18.092;2023-07-29T04:57:40;1.80;;;0.90;;
57331;SDS011;43164;50.908;18.092;2023-07-29T05:00:19;2.30;;;1.00;;
57331;SDS011;43164;50.908;18.092;2023-07-29T05:02:50;5.50;;;1.30;;
57331;SDS011;43164;50.908;18.092;2023-07-29T05:05:19;5.60;;;1.10;;
57331;SDS011;43164;50.908;18.092;2023-07-29T05:07:47;5.60;;;1.30;;
57331;SDS011;43164;50.908;18.092;2023-07-29T05:10:22;3.90;;;1.60;;
57331;SDS011;43164;50.908;18.092;2023-07-29T05:12:52;7.50;;;1.30;;
57331;SDS011;43164;50.908;18.092;2023-07-29T05:15:29;5.90;;;1.60;;
57331;SDS011;43164;50.908;18.092;2023-07-29T05:17:58;4.90;;;1.70;;
57331;SDS011;43164;50.908;18.092;2023-07-29T05:20:27;6.10;;;1.30;;
57331;SDS011;43164;50.908;18.092;2023-07-29T05:33:09;4.50;;;1.10;;
57331;SDS011;43164;50.908;18.092;2023-07-29T05:35:41;2.40;;;1.10;;
57331;SDS011;43164;50.908;18.092;2023-07-29T05:38:51;5.40;;;1.10;;
57331;SDS011;43164;50.908;18.092;2023-07-29T05:44:33;6.00;;;1.30;;
57331;SDS011;43164;50.908;18.092;2023-07-29T05:54:17;2.70;;;1.00;;
57331;SDS011;43164;50.908;18.092;2023-07-29T05:57:02;4.00;;;1.00;;
57331;SDS011;43164;50.908;18.092;2023-07-29T05:59:57;3.90;;;0.90;;
57331;SDS011;43164;50.908;18.092;2023-07-29T06:08:48;3.60;;;0.70;;
57331;SDS011;43164;50.908;18.092;2023-07-29T06:25:19;2.50;;;0.90;;
57331;SDS011;43164;50.908;18.092;2023-07-29T06:27:55;3.10;;;0.90;;
57331;SDS011;43164;50.908;18.092;2023-07-29T06:30:28;2.00;;;0.70;;
57331;SDS011;43164;50.908;18.092;2023-07-29T06:33:19;5.50;;;0.70;;
57331;SDS011;43164;50.908;18.092;2023-07-29T06:36:06;1.90;;;0.60;;
57331;SDS011;43164;50.908;18.092;2023-07-29T06:38:52;2.70;;;0.70;;
57331;SDS011;43164;50.908;18.092;2023-07-29T06:41:30;2.00;;;0.50;;
57331;SDS011;43164;50.908;18.092;2023-07-29T06:44:00;2.30;;;0.60;;
57331;SDS011;43164;50.908;18.092;2023-07-29T06:46:41;2.80;;;0.70;;
57331;SDS011;43164;50.908;18.092;2023-07-29T06:49:21;2.80;;;0.60;;
57331;SDS011;43164;50.908;18.092;2023-07-29T06:52:02;1.90;;;0.60;;
57331;SDS011;43164;50.908;18.092;2023-07-29T06:54:34;2.30;;;0.50;;
57331;SDS011;43164;50.908;18.092;2023-07-29T06:57:14;2.30;;;0.60;;
57331;SDS011;43164;50.908;18.092;2023-07-29T06:59:42;2.70;;;0.70;;
57331;SDS011;43164;50.908;18.092;2023-07-29T07:02:18;1.00;;;0.40;;
57331;SDS011;43164;50.908;18.092;2023-07-29T07:04:52;2.30;;;0.60;;
57331;SDS011;43164;50.908;18.092;2023-07-29T07:07:33;3.10;;;0.70;;
57331;SDS011;43164;50.908;18.092;2023-07-29T07:10:04;3.20;;;0.70;;
57331;SDS011;43164;50.908;18.092;2023-07-29T07:12:44;1.90;;;0.60;;
57331;SDS011;43164;50.908;18.092;2023-07-29T07:15:15;1.90;;;0.50;;
57331;SDS011;43164;50.908;18.092;2023-07-29T07:17:51;1.30;;;0.50;;
57331;SDS011;43164;50.908;18.092;2023-07-29T07:20:21;1.30;;;0.50;;
57331;SDS011;43164;50.908;18.092;2023-07-29T07:22:56;2.30;;;0.40;;
57331;SDS011;43164;50.908;18.092;2023-07-29T07:25:30;1.60;;;0.60;;
57331;SDS011;43164;50.908;18.092;2023-07-29T07:28:04;2.10;;;0.80;;
57331;SDS011;43164;50.908;18.092;2023-07-29T07:30:35;1.60;;;0.60;;
57331;SDS011;43164;50.908;18.092;2023-07-29T07:33:16;3.40;;;0.60;;
57331;SDS011;43164;50.908;18.092;2023-07-29T07:39:33;1.90;;;0.50;;
57331;SDS011;43164;50.908;18.092;2023-07-29T07:42:01;3.10;;;0.70;;
57331;SDS011;43164;50.908;18.092;2023-07-29T07:45:00;1.60;;;0.40;;
57331;SDS011;43164;50.908;18.092;2023-07-29T07:47:31;1.00;;;0.50;;
57331;SDS011;43164;50.908;18.092;2023-07-29T07:50:06;3.00;;;0.60;;
57331;SDS011;43164;50.908;18.092;2023-07-29T07:52:35;2.50;;;0.70;;
57331;SDS011;43164;50.908;18.092;2023-07-29T07:58:59;2.00;;;0.50;;
57331;SDS011;43164;50.908;18.092;2023-07-29T08:01:39;3.40;;;0.60;;
57331;SDS011;43164;50.908;18.092;2023-07-29T08:07:50;2.60;;;0.60;;
57331;SDS011;43164;50.908;18.092;2023-07-29T08:10:20;2.10;;;0.70;;
57331;SDS011;43164;50.908;18.092;2023-07-29T08:12:55;3.20;;;0.70;;
57331;SDS011;43164;50.908;18.092;2023-07-29T08:15:24;3.10;;;0.60;;
57331;SDS011;43164;50.908;18.092;2023-07-29T08:17:53;2.80;;;0.50;;
57331;SDS011;43164;50.908;18.092;2023-07-29T08:20:23;3.10;;;0.50;;
57331;SDS011;43164;50.908;18.092;2023-07-29T08:26:32;3.10;;;0.60;;
57331;SDS011;43164;50.908;18.092;2023-07-29T08:29:09;2.80;;;0.60;;
57331;SDS011;43164;50.908;18.092;2023-07-29T08:31:42;1.80;;;0.60;;
57331;SDS011;43164;50.908;18.092;2023-07-29T08:34:15;1.90;;;0.50;;
57331;SDS011;43164;50.908;18.092;2023-07-29T08:36:46;1.40;;;0.60;;
57331;SDS011;43164;50.908;18.092;2023-07-29T08:39:30;1.60;;;0.60;;
57331;SDS011;43164;50.908;18.092;2023-07-29T08:42:01;1.50;;;0.60;;
57331;SDS011;43164;50.908;18.092;2023-07-29T08:44:51;1.50;;;0.60;;
57331;SDS011;43164;50.908;18.092;2023-07-29T08:47:25;2.10;;;0.70;;
57331;SDS011;43164;50.908;18.092;2023-07-29T08:49:56;2.50;;;0.60;;
57331;SDS011;43164;50.908;18.092;2023-07-29T08:52:24;2.40;;;0.70;;
57331;SDS011;43164;50.908;18.092;2023-07-29T08:55:01;1.60;;;0.70;;
57331;SDS011;43164;50.908;18.092;2023-07-29T08:57:31;1.30;;;0.60;;
57331;SDS011;43164;50.908;18.092;2023-07-29T09:00:16;2.30;;;0.80;;
57331;SDS011;43164;50.908;18.092;2023-07-29T09:06:37;2.40;;;0.70;;
57331;SDS011;43164;50.908;18.092;2023-07-29T09:09:12;2.10;;;0.60;;
57331;SDS011;43164;50.908;18.092;2023-07-29T09:15:06;2.80;;;0.70;;
57331;SDS011;43164;50.908;18.092;2023-07-29T09:17:44;2.00;;;0.60;;
57331;SDS011;43164;50.908;18.092;2023-07-29T09:20:22;1.60;;;0.60;;
57331;SDS011;43164;50.908;18.092;2023-07-29T09:23:10;3.00;;;0.70;;
57331;SDS011;43164;50.908;18.092;2023-07-29T09:25:42;2.00;;;0.70;;
57331;SDS011;43164;50.908;18.092;2023-07-29T09:38:55;1.90;;;0.60;;
57331;SDS011;43164;50.908;18.092;2023-07-29T09:41:35;1.90;;;0.60;;
57331;SDS011;43164;50.908;18.092;2023-07-29T09:59:01;2.60;;;0.70;;
57331;SDS011;43164;50.908;18.092;2023-07-29T10:08:58;3.40;;;0.50;;
57331;SDS011;43164;50.908;18.092;2023-07-29T10:11:29;0.90;;;0.50;;
57331;SDS011;43164;50.908;18.092;2023-07-29T11:17:27;1.70;;;0.50;;
57331;SDS011;43164;50.908;18.092;2023-07-29T11:31:38;1.60;;;0.40;;
57331;SDS011;43164;50.908;18.092;2023-07-29T11:34:14;1.90;;;0.50;;
57331;SDS011;43164;50.908;18.092;2023-07-29T11:37:09;1.60;;;0.50;;
57331;SDS011;43164;50.908;18.092;2023-07-29T11:43:34;2.40;;;0.60;;
57331;SDS011;43164;50.908;18.092;2023-07-29T12:14:47;2.20;;;0.60;;
57331;SDS011;43164;50.908;18.092;2023-07-29T12:17:39;1.00;;;0.40;;
57331;SDS011;43164;50.908;18.092;2023-07-29T12:23:23;2.50;;;0.50;;
57331;SDS011;43164;50.908;18.092;2023-07-29T12:33:30;2.10;;;0.50;;
57331;SDS011;43164;50.908;18.092;2023-07-29T12:36:19;1.80;;;0.60;;
57331;SDS011;43164;50.908;18.092;2023-07-29T12:46:31;1.90;;;0.60;;
57331;SDS011;43164;50.908;18.092;2023-07-29T12:49:07;1.30;;;0.50;;
57331;SDS011;43164;50.908;18.092;2023-07-29T12:51:47;2.40;;;0.40;;
57331;SDS011;43164;50.908;18.092;2023-07-29T12:54:27;2.00;;;0.50;;
57331;SDS011;43164;50.908;18.092;2023-07-29T12:57:20;2.60;;;0.70;;
57331;SDS011;43164;50.908;18.092;2023-07-29T13:02:45;2.00;;;0.50;;
57331;SDS011;43164;50.908;18.092;2023-07-29T13:05:21;2.00;;;0.70;;
57331;SDS011;43164;50.908;18.092;2023-07-29T13:14:44;1.50;;;0.60;;
57331;SDS011;43164;50.908;18.092;2023-07-29T13:17:35;3.00;;;0.50;;
57331;SDS011;43164;50.908;18.092;2023-07-29T13:20:27;3.10;;;0.50;;
57331;SDS011;43164;50.908;18.092;2023-07-29T13:23:27;2.20;;;0.40;;
57331;SDS011;43164;50.908;18.092;2023-07-29T13:25:57;1.80;;;0.40;;
57331;SDS011;43164;50.908;18.092;2023-07-29T13:28:49;2.70;;;0.60;;
57331;SDS011;43164;50.908;18.092;2023-07-29T13:35:19;3.20;;;0.60;;
57331;SDS011;43164;50.908;18.092;2023-07-29T13:41:48;0.70;;;0.40;;
57331;SDS011;43164;50.908;18.092;2023-07-29T13:44:35;2.50;;;0.60;;
57331;SDS011;43164;50.908;18.092;2023-07-29T13:47:11;2.70;;;0.60;;
57331;SDS011;43164;50.908;18.092;2023-07-29T13:49:55;3.10;;;0.50;;
57331;SDS011;43164;50.908;18.092;2023-07-29T13:52:31;1.70;;;0.50;;
57331;SDS011;43164;50.908;18.092;2023-07-29T14:09:47;1.50;;;0.50;;
57331;SDS011;43164;50.908;18.092;2023-07-29T14:12:23;2.00;;;0.60;;
57331;SDS011;43164;50.908;18.092;2023-07-29T14:14:51;1.40;;;0.60;;
57331;SDS011;43164;50.908;18.092;2023-07-29T14:17:22;4.10;;;0.80;;
57331;SDS011;43164;50.908;18.092;2023-07-29T14:19:51;1.40;;;0.70;;
57331;SDS011;43164;50.908;18.092;2023-07-29T14:22:28;2.00;;;0.70;;
57331;SDS011;43164;50.908;18.092;2023-07-29T14:24:56;2.40;;;0.80;;
57331;SDS011;43164;50.908;18.092;2023-07-29T14:27:25;1.70;;;0.70;;
57331;SDS011;43164;50.908;18.092;2023-07-29T14:29:53;2.00;;;1.00;;
57331;SDS011;43164;50.908;18.092;2023-07-29T14:32:50;2.70;;;1.00;;
57331;SDS011;43164;50.908;18.092;2023-07-29T14:35:18;1.80;;;1.00;;
57331;SDS011;43164;50.908;18.092;2023-07-29T14:37:48;3.90;;;1.10;;
57331;SDS011;43164;50.908;18.092;2023-07-29T14:40:16;1.90;;;1.10;;
57331;SDS011;43164;50.908;18.092;2023-07-29T14:43:08;3.20;;;1.10;;
57331;SDS011;43164;50.908;18.092;2023-07-29T14:45:39;4.30;;;0.90;;
57331;SDS011;43164;50.908;18.092;2023-07-29T14:48:08;3.00;;;0.80;;
57331;SDS011;43164;50.908;18.092;2023-07-29T14:50:36;1.60;;;0.80;;
57331;SDS011;43164;50.908;18.092;2023-07-29T14:53:05;2.60;;;0.90;;
57331;SDS011;43164;50.908;18.092;2023-07-29T14:55:45;1.50;;;0.90;;
57331;SDS011;43164;50.908;18.092;2023-07-29T15:01:18;1.60;;;0.70;;
57331;SDS011;43164;50.908;18.092;2023-07-29T15:03:48;2.60;;;0.70;;
57331;SDS011;43164;50.908;18.092;2023-07-29T15:07:00;1.20;;;0.50;;
57331;SDS011;43164;50.908;18.092;2023-07-29T15:09:33;2.80;;;0.60;;
57331;SDS011;43164;50.908;18.092;2023-07-29T15:12:09;1.40;;;0.50;;
57331;SDS011;43164;50.908;18.092;2023-07-29T15:14:38;1.00;;;0.40;;
57331;SDS011;43164;50.908;18.092;2023-07-29T15:17:11;0.80;;;0.40;;
57331;SDS011;43164;50.908;18.092;2023-07-29T15:19:43;1.80;;;0.60;;
57331;SDS011;43164;50.908;18.092;2023-07-29T15:22:19;1.50;;;0.40;;
57331;SDS011;43164;50.908;18.092;2023-07-29T15:24:58;1.40;;;0.60;;
57331;SDS011;43164;50.908;18.092;2023-07-29T15:27:34;1.60;;;0.50;;
57331;SDS011;43164;50.908;18.092;2023-07-29T15:30:04;1.50;;;0.50;;
57331;SDS011;43164;50.908;18.092;2023-07-29T15:32:44;2.50;;;0.50;;
57331;SDS011;43164;50.908;18.092;2023-07-29T15:35:18;1.50;;;0.60;;
57331;SDS011;43164;50.908;18.092;2023-07-29T15:37:53;1.50;;;0.50;;
57331;SDS011;43164;50.908;18.092;2023-07-29T15:40:22;1.70;;;0.40;;
57331;SDS011;43164;50.908;18.092;2023-07-29T15:42:57;2.60;;;0.50;;
57331;SDS011;43164;50.908;18.092;2023-07-29T15:45:26;1.70;;;0.50;;
57331;SDS011;43164;50.908;18.092;2023-07-29T15:48:03;1.20;;;0.50;;
57331;SDS011;43164;50.908;18.092;2023-07-29T15:50:33;2.00;;;0.60;;
57331;SDS011;43164;50.908;18.092;2023-07-29T15:53:09;5.20;;;0.50;;
57331;SDS011;43164;50.908;18.092;2023-07-29T15:55:41;1.30;;;0.50;;
57331;SDS011;43164;50.908;18.092;2023-07-29T15:58:19;2.70;;;0.50;;
57331;SDS011;43164;50.908;18.092;2023-07-29T16:00:50;1.50;;;0.60;;
57331;SDS011;43164;50.908;18.092;2023-07-29T16:03:25;1.20;;;0.50;;
57331;SDS011;43164;50.908;18.092;2023-07-29T16:05:55;4.40;;;0.70;;
57331;SDS011;43164;50.908;18.092;2023-07-29T16:08:33;1.60;;;0.50;;
57331;SDS011;43164;50.908;18.092;2023-07-29T16:11:13;1.20;;;0.40;;
57331;SDS011;43164;50.908;18.092;2023-07-29T16:13:51;1.20;;;0.40;;
57331;SDS011;43164;50.908;18.092;2023-07-29T16:20:27;3.30;;;0.60;;
57331;SDS011;43164;50.908;18.092;2023-07-29T16:22:59;1.30;;;0.50;;
57331;SDS011;43164;50.908;18.092;2023-07-29T16:25:33;2.40;;;0.60;;
57331;SDS011;43164;50.908;18.092;2023-07-29T16:28:03;1.80;;;0.60;;
57331;SDS011;43164;50.908;18.092;2023-07-29T16:36:47;1.10;;;0.50;;
57331;SDS011;43164;50.908;18.092;2023-07-29T16:39:20;1.30;;;0.50;;
57331;SDS011;43164;50.908;18.092;2023-07-29T16:45:19;1.30;;;0.60;;
57331;SDS011;43164;50.908;18.092;2023-07-29T16:47:53;2.50;;;0.40;;
57331;SDS011;43164;50.908;18.092;2023-07-29T16:50:31;6.40;;;0.40;;
57331;SDS011;43164;50.908;18.092;2023-07-29T16:53:02;2.50;;;0.40;;
57331;SDS011;43164;50.908;18.092;2023-07-29T16:55:47;2.80;;;0.30;;
57331;SDS011;43164;50.908;18.092;2023-07-29T16:58:15;3.00;;;0.40;;
57331;SDS011;43164;50.908;18.092;2023-07-29T17:00:44;2.20;;;0.40;;
57331;SDS011;43164;50.908;18.092;2023-07-29T17:06:03;0.80;;;0.30;;
57331;SDS011;43164;50.908;18.092;2023-07-29T17:12:15;0.50;;;0.20;;
57331;SDS011;43164;50.908;18.092;2023-07-29T17:14:55;2.10;;;0.30;;
57331;SDS011;43164;50.908;18.092;2023-07-29T17:17:24;0.90;;;0.20;;
57331;SDS011;43164;50.908;18.092;2023-07-29T17:19:53;1.00;;;0.50;;
57331;SDS011;43164;50.908;18.092;2023-07-29T17:22:22;0.80;;;0.30;;
57331;SDS011;43164;50.908;18.092;2023-07-29T17:27:54;3.20;;;0.50;;
57331;SDS011;43164;50.908;18.092;2023-07-29T17:33:39;4.30;;;0.30;;
57331;SDS011;43164;50.908;18.092;2023-07-29T17:36:12;0.80;;;0.30;;
57331;SDS011;43164;50.908;18.092;2023-07-29T17:38:53;0.60;;;0.20;;
57331;SDS011;43164;50.908;18.092;2023-07-29T17:41:25;1.60;;;0.50;;
57331;SDS011;43164;50.908;18.092;2023-07-29T18:09:05;0.80;;;0.20;;
57331;SDS011;43164;50.908;18.092;2023-07-29T18:12:07;2.00;;;0.30;;
57331;SDS011;43164;50.908;18.092;2023-07-29T18:18:17;2.40;;;0.20;;
57331;SDS011;43164;50.908;18.092;2023-07-29T18:21:10;0.70;;;0.20;;
57331;SDS011;43164;50.908;18.092;2023-07-29T18:35:05;2.10;;;0.20;;
57331;SDS011;43164;50.908;18.092;2023-07-29T18:37:38;0.70;;;0.20;;
57331;SDS011;43164;50.908;18.092;2023-07-29T18:46:44;1.20;;;0.20;;
57331;SDS011;43164;50.908;18.092;2023-07-29T18:52:36;0.90;;;0.20;;
57331;SDS011;43164;50.908;18.092;2023-07-29T18:55:17;2.90;;;0.40;;
57331;SDS011;43164;50.908;18.092;2023-07-29T18:58:00;1.80;;;0.60;;
57331;SDS011;43164;50.908;18.092;2023-07-29T19:11:25;1.70;;;0.20;;
57331;SDS011;43164;50.908;18.092;2023-07-29T19:14:12;1.40;;;0.20;;
57331;SDS011;43164;50.908;18.092;2023-07-29T19:16:47;2.90;;;0.30;;
57331;SDS011;43164;50.908;18.092;2023-07-29T19:22:04;3.40;;;0.30;;
57331;SDS011;43164;50.908;18.092;2023-07-29T19:31:45;2.10;;;0.40;;
57331;SDS011;43164;50.908;18.092;2023-07-29T19:34:25;4.10;;;0.70;;
57331;SDS011;43164;50.908;18.092;2023-07-29T19:37:26;2.50;;;0.70;;
57331;SDS011;43164;50.908;18.092;2023-07-29T19:44:05;1.00;;;0.40;;
57331;SDS011;43164;50.908;18.092;2023-07-29T19:46:46;0.90;;;0.30;;
57331;SDS011;43164;50.908;18.092;2023-07-29T19:52:32;2.60;;;0.40;;
57331;SDS011;43164;50.908;18.092;2023-07-29T19:55:20;1.70;;;0.50;;
57331;SDS011;43164;50.908;18.092;2023-07-29T19:58:34;3.60;;;1.50;;
57331;SDS011;43164;50.908;18.092;2023-07-29T20:01:05;2.40;;;0.60;;
57331;SDS011;43164;50.908;18.092;2023-07-29T20:03:38;1.30;;;0.60;;
57331;SDS011;43164;50.908;18.092;2023-07-29T20:06:06;0.70;;;0.30;;
57331;SDS011;43164;50.908;18.092;2023-07-29T20:08:41;1.40;;;0.40;;
57331;SDS011;43164;50.908;18.092;2023-07-29T20:11:12;3.10;;;0.30;;
57331;SDS011;43164;50.908;18.092;2023-07-29T20:13:48;1.70;;;0.40;;
57331;SDS011;43164;50.908;18.092;2023-07-29T20:16:16;2.20;;;0.40;;
57331;SDS011;43164;50.908;18.092;2023-07-29T20:18:59;1.30;;;0.60;;
57331;SDS011;43164;50.908;18.092;2023-07-29T20:21:30;2.30;;;0.70;;
57331;SDS011;43164;50.908;18.092;2023-07-29T20:24:06;2.40;;;1.00;;
57331;SDS011;43164;50.908;18.092;2023-07-29T20:26:34;2.20;;;0.80;;
57331;SDS011;43164;50.908;18.092;2023-07-29T20:29:03;2.60;;;1.00;;
57331;SDS011;43164;50.908;18.092;2023-07-29T20:31:38;3.70;;;1.10;;
57331;SDS011;43164;50.908;18.092;2023-07-29T20:34:08;2.20;;;1.00;;
57331;SDS011;43164;50.908;18.092;2023-07-29T20:36:37;1.80;;;0.90;;
57331;SDS011;43164;50.908;18.092;2023-07-29T20:39:19;2.10;;;0.80;;
57331;SDS011;43164;50.908;18.092;2023-07-29T20:41:47;3.40;;;1.20;;
57331;SDS011;43164;50.908;18.092;2023-07-29T20:44:16;2.90;;;1.40;;
57331;SDS011;43164;50.908;18.092;2023-07-29T20:46:45;4.40;;;1.20;;
57331;SDS011;43164;50.908;18.092;2023-07-29T20:49:17;5.00;;;1.00;;
57331;SDS011;43164;50.908;18.092;2023-07-29T20:51:46;3.60;;;1.00;;
57331;SDS011;43164;50.908;18.092;2023-07-29T20:54:20;3.70;;;1.10;;
57331;SDS011;43164;50.908;18.092;2023-07-29T20:56:50;2.30;;;1.00;;
57331;SDS011;43164;50.908;18.092;2023-07-29T20:59:25;5.70;;;1.50;;
57331;SDS011;43164;50.908;18.092;2023-07-29T21:01:53;3.10;;;1.40;;
57331;SDS011;43164;50.908;18.092;2023-07-29T21:04:30;3.10;;;1.20;;
57331;SDS011;43164;50.908;18.092;2023-07-29T21:07:01;2.80;;;1.30;;
57331;SDS011;43164;50.908;18.092;2023-07-29T21:09:37;3.40;;;1.00;;
57331;SDS011;43164;50.908;18.092;2023-07-29T21:12:06;6.50;;;0.80;;
57331;SDS011;43164;50.908;18.092;2023-07-29T21:14:44;1.30;;;0.50;;